createdAt,value
2022-10-24T00:03:57.113Z,20.11
2022-10-24T00:06:23.607Z,20.12
2022-10-24T00:08:50.058Z,20.16
2022-10-24T00:13:43.804Z,20.19
2022-10-24T00:19:04.923Z,20.16
2022-10-24T00:21:32.224Z,20.14
2022-10-24T00:23:58.688Z,20.10
2022-10-24T00:26:25.143Z,20.12
2022-10-24T00:28:52.572Z,20.08
2022-10-24T00:34:14.973Z,20.08
2022-10-24T00:36:42.337Z,20.05
2022-10-24T00:39:08.765Z,20.06
2022-10-24T00:41:36.137Z,20.10
2022-10-24T00:44:03.493Z,20.03
2022-10-24T00:49:24.860Z,20.04
2022-10-24T00:51:51.363Z,20.04
2022-10-24T00:54:18.737Z,20.00
2022-10-24T00:56:46.080Z,20.00
2022-10-24T00:59:12.523Z,19.92
2022-10-24T01:04:22.824Z,20.00
2022-10-24T01:06:50.192Z,20.00
2022-10-24T01:09:16.654Z,19.95
2022-10-24T01:11:43.095Z,19.98
2022-10-24T01:14:09.562Z,19.94
2022-10-24T01:16:36.006Z,19.95
2022-10-24T01:19:02.457Z,19.96
2022-10-24T01:21:28.928Z,19.95
2022-10-24T01:23:56.358Z,19.90
2022-10-24T01:26:22.795Z,19.97
2022-10-24T01:28:49.249Z,19.95
2022-10-24T01:31:15.710Z,19.93
2022-10-24T01:33:43.099Z,19.95
2022-10-24T01:36:10.478Z,19.91
2022-10-24T01:38:36.927Z,19.91
2022-10-24T01:41:03.393Z,19.85
2022-10-24T01:43:30.771Z,19.83
2022-10-24T01:45:58.178Z,19.83
2022-10-24T01:48:24.621Z,19.82
2022-10-24T01:50:51.092Z,19.82
2022-10-24T01:53:19.973Z,19.78
2022-10-24T01:55:47.692Z,19.81
2022-10-24T01:58:15.100Z,19.81
2022-10-24T02:03:13.896Z,19.82
2022-10-24T02:05:42.369Z,19.75
2022-10-24T02:08:08.935Z,19.72
2022-10-24T02:10:35.388Z,19.76
2022-10-24T02:13:02.785Z,19.84
2022-10-24T02:15:29.212Z,19.85
2022-10-24T02:17:56.581Z,19.81
2022-10-24T02:20:23.039Z,19.72
2022-10-24T02:22:49.478Z,19.74
2022-10-24T02:25:15.949Z,19.74
2022-10-24T02:27:42.663Z,19.74
2022-10-24T02:30:09.375Z,19.74
2022-10-24T02:32:35.824Z,19.78
2022-10-24T02:35:02.306Z,19.79
2022-10-24T02:37:29.660Z,19.78
2022-10-24T02:39:57.062Z,19.75
2022-10-24T02:42:23.529Z,19.74
2022-10-24T02:44:50.014Z,19.79
2022-10-24T02:47:17.401Z,19.76
2022-10-24T02:52:38.711Z,19.79
2022-10-24T02:55:05.218Z,19.74
2022-10-24T02:57:31.666Z,19.75
2022-10-24T02:59:58.109Z,19.75
2022-10-24T03:02:24.545Z,19.73
2022-10-24T03:07:34.843Z,19.70
2022-10-24T03:10:02.213Z,19.64
2022-10-24T03:12:28.663Z,19.68
2022-10-24T03:14:55.127Z,19.65
2022-10-24T03:17:22.569Z,19.65
2022-10-24T03:22:34.089Z,19.59
2022-10-24T03:25:00.555Z,19.62
2022-10-24T03:27:26.968Z,19.59
2022-10-24T03:29:53.432Z,19.58
2022-10-24T03:32:20.834Z,19.60
2022-10-24T03:37:42.259Z,19.57
2022-10-24T03:40:08.785Z,19.53
2022-10-24T03:42:35.239Z,19.48
2022-10-24T03:45:02.604Z,19.57
2022-10-24T03:47:29.978Z,19.59
2022-10-24T03:52:40.541Z,19.57
2022-10-24T03:55:07.004Z,19.62
2022-10-24T03:57:33.991Z,19.57
2022-10-24T04:00:00.477Z,19.55
2022-10-24T04:02:26.949Z,19.57
2022-10-24T04:07:48.177Z,19.56
2022-10-24T04:10:15.651Z,19.52
2022-10-24T04:12:42.088Z,19.51
2022-10-24T04:15:08.608Z,19.47
2022-10-24T04:17:35.985Z,19.49
2022-10-24T04:22:46.757Z,19.57
2022-10-24T04:25:14.309Z,19.55
2022-10-24T04:27:41.715Z,19.57
2022-10-24T04:30:09.859Z,19.58
2022-10-24T04:32:38.071Z,19.58
2022-10-24T04:37:58.497Z,19.28
2022-10-24T04:40:24.959Z,19.49
2022-10-24T04:42:51.421Z,19.64
2022-10-24T04:45:17.888Z,19.71
2022-10-24T04:47:44.596Z,19.77
2022-10-24T04:53:05.999Z,19.76
2022-10-24T04:55:32.539Z,19.78
2022-10-24T04:57:59.043Z,19.78
2022-10-24T05:00:26.399Z,19.77
2022-10-24T05:02:54.210Z,19.80
2022-10-24T05:08:07.220Z,19.79
2022-10-24T05:10:34.581Z,19.78
2022-10-24T05:13:01.024Z,19.66
2022-10-24T05:15:27.497Z,19.52
2022-10-24T05:17:54.881Z,19.39
2022-10-24T05:23:16.146Z,19.44
2022-10-24T05:25:42.688Z,19.42
2022-10-24T05:28:09.158Z,19.39
2022-10-24T05:30:36.526Z,19.43
2022-10-24T05:33:02.995Z,19.45
2022-10-24T05:38:14.301Z,19.80
2022-10-24T05:40:40.861Z,19.86
2022-10-24T05:43:07.335Z,19.92
2022-10-24T05:45:33.783Z,19.94
2022-10-24T05:48:00.245Z,19.94
2022-10-24T05:53:11.843Z,19.97
2022-10-24T05:55:38.291Z,19.94
2022-10-24T05:58:05.683Z,19.95
2022-10-24T06:00:32.139Z,19.94
2022-10-24T06:02:59.503Z,19.96
2022-10-24T06:08:20.807Z,20.00
2022-10-24T06:10:48.319Z,20.02
2022-10-24T06:13:14.841Z,20.01
2022-10-24T06:15:41.444Z,20.04
2022-10-24T06:18:08.117Z,20.02
2022-10-24T06:23:29.514Z,20.04
2022-10-24T06:25:55.997Z,20.07
2022-10-24T06:28:23.388Z,20.07
2022-10-24T06:30:49.822Z,20.10
2022-10-24T06:33:17.182Z,20.10
2022-10-24T06:38:28.453Z,20.10
2022-10-24T06:40:55.846Z,20.12
2022-10-24T06:43:22.340Z,20.12
2022-10-24T06:45:49.707Z,20.14
2022-10-24T06:48:16.147Z,20.10
2022-10-24T06:53:37.277Z,20.07
2022-10-24T06:56:03.720Z,20.10
2022-10-24T06:58:31.083Z,20.10
2022-10-24T07:00:58.543Z,20.08
2022-10-24T07:03:26.020Z,20.09
2022-10-24T07:08:47.324Z,20.09
2022-10-24T07:11:14.741Z,20.05
2022-10-24T07:13:41.193Z,20.09
2022-10-24T07:16:07.740Z,20.14
2022-10-24T07:18:34.173Z,20.16
2022-10-24T07:23:46.460Z,20.27
2022-10-24T07:26:13.876Z,20.25
2022-10-24T07:28:41.259Z,20.26
2022-10-24T07:31:07.773Z,20.26
2022-10-24T07:33:34.242Z,20.27
2022-10-24T07:38:46.050Z,20.05
2022-10-24T07:41:12.510Z,19.95
2022-10-24T07:43:38.958Z,20.03
2022-10-24T07:46:05.425Z,19.94
2022-10-24T07:48:31.891Z,19.80
2022-10-24T07:53:53.358Z,19.74
2022-10-24T07:56:20.760Z,19.73
2022-10-24T07:58:47.211Z,19.71
2022-10-24T08:01:13.818Z,19.68
2022-10-24T08:03:40.291Z,19.75
2022-10-24T08:08:50.857Z,19.67
2022-10-24T08:11:18.478Z,19.68
2022-10-24T08:13:44.971Z,19.69
2022-10-24T08:16:12.405Z,19.71
2022-10-24T08:18:39.915Z,19.72
2022-10-24T08:23:51.508Z,19.69
2022-10-24T08:26:18.882Z,19.72
2022-10-24T08:28:45.357Z,19.73
2022-10-24T08:31:12.731Z,19.72
2022-10-24T08:33:39.188Z,19.71
2022-10-24T08:39:00.689Z,19.80
2022-10-24T08:41:27.304Z,19.77
2022-10-24T08:43:54.823Z,19.75
2022-10-24T08:46:22.191Z,19.79
2022-10-24T08:48:48.644Z,19.77
2022-10-24T08:54:00.120Z,19.78
2022-10-24T08:56:26.570Z,19.76
2022-10-24T08:58:53.093Z,19.80
2022-10-24T09:01:20.649Z,19.87
2022-10-24T09:04:02.612Z,19.88
2022-10-24T09:09:24.102Z,20.05
2022-10-24T09:11:50.558Z,20.02
2022-10-24T09:14:17.011Z,20.01
2022-10-24T09:16:43.511Z,19.91
2022-10-24T09:19:10.893Z,19.90
2022-10-24T09:24:32.439Z,20.25
2022-10-24T09:26:59.821Z,20.15
2022-10-24T09:29:26.309Z,20.20
2022-10-24T09:31:52.778Z,20.40
2022-10-24T09:34:20.201Z,20.26
2022-10-24T09:39:42.511Z,20.23
2022-10-24T09:42:08.962Z,20.10
2022-10-24T09:44:35.426Z,20.22
2022-10-24T09:47:02.826Z,20.28
2022-10-24T09:49:30.184Z,20.18
2022-10-24T09:54:51.550Z,20.20
2022-10-24T09:57:18.949Z,20.21
2022-10-24T09:59:46.308Z,20.09
2022-10-24T10:02:13.737Z,20.08
2022-10-24T10:04:40.248Z,20.09
2022-10-24T10:09:55.606Z,20.11
2022-10-24T10:12:24.300Z,20.13
2022-10-24T10:14:51.663Z,20.11
2022-10-24T10:17:19.039Z,20.08
2022-10-24T10:19:45.511Z,20.07
2022-10-24T10:24:57.015Z,20.07
2022-10-24T10:27:23.445Z,20.07
2022-10-24T10:29:49.877Z,20.03
2022-10-24T10:32:17.232Z,20.08
2022-10-24T10:34:44.607Z,20.07
2022-10-24T10:37:11.037Z,20.11
2022-10-24T10:39:41.818Z,20.12
2022-10-24T10:42:11.671Z,20.27
2022-10-24T10:44:38.172Z,20.28
2022-10-24T10:47:05.569Z,20.35
2022-10-24T10:49:32.030Z,20.32
2022-10-24T10:51:59.410Z,20.41
2022-10-24T10:54:26.749Z,20.45
2022-10-24T10:56:54.076Z,20.47
2022-10-24T10:59:23.566Z,20.46
2022-10-24T11:01:53.298Z,20.46
2022-10-24T11:04:19.766Z,20.49
2022-10-24T11:06:47.049Z,20.26
2022-10-24T11:09:13.529Z,20.02
2022-10-24T11:11:40.893Z,19.88
2022-10-24T11:14:08.266Z,19.78
2022-10-24T11:16:34.729Z,19.77
2022-10-24T11:19:02.087Z,19.82
2022-10-24T11:21:28.536Z,19.75
2022-10-24T11:23:54.970Z,19.64
2022-10-24T11:26:21.416Z,19.68
2022-10-24T11:28:47.870Z,19.74
2022-10-24T11:31:15.233Z,19.67
2022-10-24T11:33:41.718Z,19.66
2022-10-24T11:36:08.178Z,19.63
2022-10-24T11:38:34.652Z,19.71
2022-10-24T11:41:01.095Z,19.72
2022-10-24T11:43:28.141Z,19.72
2022-10-24T11:45:54.615Z,19.67
2022-10-24T11:48:21.079Z,19.63
2022-10-24T11:50:48.453Z,19.73
2022-10-24T11:53:15.861Z,19.72
2022-10-24T11:55:42.309Z,19.58
2022-10-24T11:58:08.778Z,19.57
2022-10-24T12:00:35.238Z,19.45
2022-10-24T12:03:01.743Z,19.44
2022-10-24T12:05:28.341Z,19.41
2022-10-24T12:07:54.801Z,19.43
2022-10-24T12:13:06.008Z,19.52
2022-10-24T12:15:35.475Z,19.72
2022-10-24T12:18:04.052Z,19.67
2022-10-24T12:20:31.419Z,19.55
2022-10-24T12:22:57.886Z,19.64
2022-10-24T12:28:10.296Z,19.54
2022-10-24T12:30:36.772Z,19.56
2022-10-24T12:33:03.249Z,19.72
2022-10-24T12:35:31.569Z,19.89
2022-10-24T12:37:59.266Z,19.69
2022-10-24T12:43:10.815Z,19.87
2022-10-24T12:45:38.191Z,19.91
2022-10-24T12:48:05.509Z,19.89
2022-10-24T12:50:31.949Z,19.87
2022-10-24T12:52:58.406Z,19.78
2022-10-24T12:58:19.768Z,19.69
2022-10-24T13:00:46.197Z,19.70
2022-10-24T13:03:13.538Z,19.63
2022-10-24T13:05:39.968Z,19.82
2022-10-24T13:08:07.316Z,19.92
2022-10-24T13:13:29.320Z,19.94
2022-10-24T13:15:55.766Z,19.97
2022-10-24T13:18:23.071Z,20.07
2022-10-24T13:20:49.571Z,19.99
2022-10-24T13:23:16.912Z,20.08
2022-10-24T13:28:28.236Z,20.07
2022-10-24T13:30:55.540Z,20.02
2022-10-24T13:33:21.966Z,20.02
2022-10-24T13:35:49.243Z,20.02
2022-10-24T13:38:15.731Z,19.91
2022-10-24T13:43:27.990Z,19.81
2022-10-24T13:45:54.385Z,19.90
2022-10-24T13:48:21.754Z,19.89
2022-10-24T13:50:48.141Z,19.87
2022-10-24T13:53:14.594Z,19.87
2022-10-24T13:58:24.954Z,19.92
2022-10-24T14:00:51.369Z,19.98
2022-10-24T14:03:18.797Z,20.00
2022-10-24T14:05:46.128Z,20.05
2022-10-24T14:08:12.582Z,20.01
2022-10-24T14:13:33.028Z,20.01
2022-10-24T14:16:00.245Z,20.06
2022-10-24T14:18:26.720Z,20.13
2022-10-24T14:20:55.014Z,20.16
2022-10-24T14:23:23.314Z,20.23
2022-10-24T14:31:10.044Z,20.22
2022-10-24T14:33:38.336Z,20.20
2022-10-24T14:36:04.772Z,20.15
2022-10-24T14:38:31.237Z,20.19
2022-10-24T14:43:52.404Z,20.15
2022-10-24T14:46:22.192Z,20.12
2022-10-24T14:48:53.216Z,20.06
2022-10-24T14:51:19.691Z,20.02
2022-10-24T14:53:46.905Z,20.06
2022-10-24T14:58:58.371Z,20.07
2022-10-24T15:01:25.692Z,20.11
2022-10-24T15:03:52.337Z,20.13
2022-10-24T15:06:18.745Z,20.16
2022-10-24T15:08:46.108Z,20.13
2022-10-24T15:14:08.288Z,20.14
2022-10-24T15:16:34.683Z,20.21
2022-10-24T15:19:01.153Z,20.16
2022-10-24T15:21:27.558Z,20.19
2022-10-24T15:23:53.955Z,20.18
2022-10-24T15:29:14.927Z,20.24
2022-10-24T15:31:41.349Z,20.19
2022-10-24T15:34:08.643Z,20.19
2022-10-24T15:36:35.980Z,20.27
2022-10-24T15:39:02.396Z,20.22
2022-10-24T15:44:13.553Z,20.27
2022-10-24T15:46:39.947Z,20.10
2022-10-24T15:49:06.377Z,20.20
2022-10-24T15:51:33.706Z,20.27
2022-10-24T15:54:01.025Z,20.34
2022-10-24T15:59:12.430Z,20.57
2022-10-24T16:01:40.534Z,20.52
2022-10-24T16:04:07.408Z,20.49
2022-10-24T16:06:33.892Z,20.67
2022-10-24T16:09:01.119Z,20.65
2022-10-24T16:14:22.536Z,20.99
2022-10-24T16:16:48.978Z,21.20
2022-10-24T16:19:17.265Z,21.33
2022-10-24T16:21:43.889Z,20.84
2022-10-24T16:24:11.150Z,20.84
2022-10-24T16:29:23.201Z,20.88
2022-10-24T16:31:50.409Z,20.79
2022-10-24T16:34:16.810Z,20.94
2022-10-24T16:36:44.066Z,20.88
2022-10-24T16:39:11.293Z,20.86
2022-10-24T16:44:22.979Z,20.50
2022-10-24T16:46:49.430Z,20.52
2022-10-24T16:49:16.156Z,20.51
2022-10-24T16:51:43.942Z,20.73
2022-10-24T16:54:10.592Z,20.84
2022-10-24T16:59:30.956Z,21.00
2022-10-24T17:01:57.513Z,21.07
2022-10-24T17:04:25.482Z,20.69
2022-10-24T17:06:52.943Z,20.67
2022-10-24T17:09:20.248Z,20.95
2022-10-24T17:14:40.857Z,20.49
2022-10-24T17:17:07.532Z,20.51
2022-10-24T17:19:33.967Z,20.46
2022-10-24T17:22:01.347Z,20.59
2022-10-24T17:24:27.791Z,20.53
2022-10-24T17:29:50.003Z,20.54
2022-10-24T17:32:16.506Z,20.51
2022-10-24T17:34:42.991Z,20.62
2022-10-24T17:37:09.475Z,20.68
2022-10-24T17:39:35.968Z,20.62
2022-10-24T17:44:47.594Z,20.58
2022-10-24T17:47:14.979Z,20.57
2022-10-24T17:49:41.870Z,20.75
2022-10-24T17:52:08.349Z,20.71
2022-10-24T17:54:35.549Z,20.31
2022-10-24T17:59:56.744Z,20.66
2022-10-24T18:02:23.237Z,20.42
2022-10-24T18:04:50.725Z,20.38
2022-10-24T18:07:18.255Z,20.46
2022-10-24T18:09:45.650Z,20.38
2022-10-24T18:15:07.258Z,20.27
2022-10-24T18:17:35.615Z,20.35
2022-10-24T18:20:02.090Z,20.43
2022-10-24T18:22:28.539Z,20.33
2022-10-24T18:24:55.019Z,20.63
2022-10-24T18:30:05.441Z,20.51
2022-10-24T18:32:32.833Z,20.54
2022-10-24T18:35:00.255Z,20.48
2022-10-24T18:37:26.734Z,20.44
2022-10-24T18:39:53.338Z,20.49
2022-10-24T18:45:05.031Z,20.23
2022-10-24T18:47:32.656Z,20.39
2022-10-24T18:49:59.113Z,20.73
2022-10-24T18:52:25.555Z,21.04
2022-10-24T18:54:52.852Z,21.20
2022-10-24T19:00:14.911Z,21.30
2022-10-24T19:02:41.617Z,21.08
2022-10-24T19:05:08.885Z,21.16
2022-10-24T19:07:35.286Z,21.12
2022-10-24T19:10:02.516Z,21.20
2022-10-24T19:15:15.398Z,21.40
2022-10-24T19:17:41.859Z,21.48
2022-10-24T19:20:08.323Z,21.40
2022-10-24T19:22:34.774Z,21.15
2022-10-24T19:25:04.133Z,21.19
2022-10-24T19:30:18.237Z,21.22
2022-10-24T19:32:44.796Z,21.09
2022-10-24T19:35:13.560Z,20.99
2022-10-24T19:37:41.015Z,20.99
2022-10-24T19:40:07.422Z,20.96
2022-10-24T19:42:34.817Z,20.90
2022-10-24T19:45:02.467Z,20.90
2022-10-24T19:47:28.891Z,20.96
2022-10-24T19:49:56.174Z,20.87
2022-10-24T19:52:23.448Z,20.99
2022-10-24T19:54:49.862Z,21.08
2022-10-24T19:57:16.277Z,21.29
2022-10-24T19:59:42.703Z,21.21
2022-10-24T20:02:09.127Z,21.34
2022-10-24T20:04:35.530Z,21.09
2022-10-24T20:07:02.125Z,20.99
2022-10-24T20:09:29.422Z,20.88
2022-10-24T20:11:55.828Z,20.90
2022-10-24T20:14:23.063Z,20.97
2022-10-24T20:16:50.301Z,20.99
2022-10-24T20:19:16.800Z,21.09
2022-10-24T20:21:43.224Z,20.96
2022-10-24T20:24:09.665Z,20.96
2022-10-24T20:26:36.087Z,20.93
2022-10-24T20:29:02.509Z,20.94
2022-10-24T20:31:28.922Z,20.87
2022-10-24T20:33:56.257Z,20.89
2022-10-24T20:36:23.559Z,20.95
2022-10-24T20:38:49.979Z,20.89
2022-10-24T20:41:17.218Z,20.89
2022-10-24T20:43:43.676Z,20.94
2022-10-24T20:46:10.965Z,20.85
2022-10-24T20:48:38.178Z,20.86
2022-10-24T20:51:04.742Z,20.88
2022-10-24T20:53:31.200Z,20.88
2022-10-24T20:55:57.606Z,20.81
2022-10-24T20:58:24.879Z,20.86
2022-10-24T21:00:52.145Z,20.93
2022-10-24T21:03:18.611Z,20.84
2022-10-24T21:05:45.910Z,20.82
2022-10-24T21:08:12.490Z,20.74
2022-10-24T21:10:38.957Z,20.74
2022-10-24T21:13:05.343Z,20.74
2022-10-24T21:18:26.613Z,20.66
2022-10-24T21:20:53.869Z,20.74
2022-10-24T21:23:21.136Z,20.74
2022-10-24T21:25:48.406Z,20.78
2022-10-24T21:28:14.891Z,20.72
2022-10-24T21:33:36.945Z,20.76
2022-10-24T21:36:04.248Z,20.73
2022-10-24T21:38:31.457Z,20.75
2022-10-24T21:40:57.843Z,20.72
2022-10-24T21:43:24.295Z,20.70
2022-10-24T21:48:35.639Z,20.71
2022-10-24T21:51:02.051Z,20.71
2022-10-24T21:53:29.331Z,20.71
2022-10-24T21:55:56.531Z,20.72
2022-10-24T21:58:23.735Z,20.67
2022-10-24T22:03:45.851Z,20.65
2022-10-24T22:06:13.096Z,20.62
2022-10-24T22:08:40.325Z,20.66
2022-10-24T22:11:08.637Z,20.61
2022-10-24T22:13:37.803Z,20.64
2022-10-24T22:18:49.162Z,20.61
2022-10-24T22:21:15.634Z,20.57
2022-10-24T22:23:42.158Z,20.59
2022-10-24T22:26:08.582Z,20.54
2022-10-24T22:28:35.070Z,20.51
2022-10-24T22:33:45.736Z,20.52
2022-10-24T22:36:12.978Z,20.53
2022-10-24T22:38:39.355Z,20.47
2022-10-24T22:41:05.787Z,20.44
2022-10-24T22:43:32.218Z,20.47
2022-10-24T22:48:43.333Z,20.56
2022-10-24T22:51:09.814Z,20.52
2022-10-24T22:53:37.032Z,20.44
2022-10-24T22:56:04.317Z,20.47
2022-10-24T22:58:32.590Z,20.44
2022-10-24T23:03:57.189Z,20.50
2022-10-24T23:06:23.649Z,20.51
2022-10-24T23:08:50.889Z,20.48
2022-10-24T23:11:17.387Z,20.48
2022-10-24T23:13:43.857Z,20.53
2022-10-24T23:19:07.104Z,20.50
2022-10-24T23:21:34.333Z,20.49
2022-10-24T23:24:01.590Z,20.49
2022-10-24T23:26:27.968Z,20.51
2022-10-24T23:28:55.251Z,20.52
2022-10-24T23:34:16.461Z,20.47
2022-10-24T23:36:42.983Z,20.53
2022-10-24T23:39:09.413Z,20.53
2022-10-24T23:41:37.755Z,20.57
2022-10-24T23:44:05.009Z,20.52
2022-10-24T23:49:17.042Z,20.47
2022-10-24T23:51:43.457Z,20.51
2022-10-24T23:54:09.884Z,20.46
2022-10-24T23:56:38.157Z,20.45
2022-10-24T23:59:05.456Z,20.41
